sensor_id;sensor_type;location;lat;lon;timestamp;pressure;altitude;pressure_sealevel;temperature;humidity
53619;BME280;68717;53.040;18.488;2024-03-23T00:51:46;100354.94;;;10.65;100.00
53619;BME280;68717;53.040;18.488;2024-03-23T00:52:54;100355.06;;;10.63;100.00
53619;BME280;68717;53.040;18.488;2024-03-23T00:53:31;100354.22;;;10.63;100.00
53619;BME280;68717;53.040;18.488;2024-03-23T00:53:45;100353.34;;;10.62;100.00
53619;BME280;68717;53.040;18.488;2024-03-23T00:53:57;100359.59;;;10.63;100.00
53619;BME280;68717;53.040;18.488;2024-03-23T00:54:09;100353.34;;;10.62;100.00
53619;BME280;68717;53.040;18.488;2024-03-23T00:54:21;100358.72;;;10.62;100.00
53619;BME280;68717;53.040;18.488;2024-03-23T00:54:33;100353.34;;;10.62;100.00
53619;BME280;68717;53.040;18.488;2024-03-23T00:54:45;100359.59;;;10.63;100.00
53619;BME280;68717;53.040;18.488;2024-03-23T00:54:57;100359.59;;;10.63;100.00
53619;BME280;68717;53.040;18.488;2024-03-23T00:55:08;100357.88;;;10.62;100.00
53619;BME280;68717;53.040;18.488;2024-03-23T00:55:20;100356.03;;;10.62;100.00
53619;BME280;68717;53.040;18.488;2024-03-23T00:55:33;100353.34;;;10.62;100.00
53619;BME280;68717;53.040;18.488;2024-03-23T00:55:45;100359.59;;;10.63;100.00
53619;BME280;68717;53.040;18.488;2024-03-23T00:55:56;100356.19;;;10.61;100.00
53619;BME280;68717;53.040;18.488;2024-03-23T00:56:08;100358.88;;;10.61;100.00
53619;BME280;68717;53.040;18.488;2024-03-23T00:56:21;100358.88;;;10.61;100.00
53619;BME280;68717;53.040;18.488;2024-03-23T00:56:33;100357.03;;;10.61;100.00
53619;BME280;68717;53.040;18.488;2024-03-23T00:56:45;100360.72;;;10.60;100.00
53619;BME280;68717;53.040;18.488;2024-03-23T00:56:57;100361.56;;;10.61;100.00
53619;BME280;68717;53.040;18.488;2024-03-23T00:57:09;100353.50;;;10.61;100.00
53619;BME280;68717;53.040;18.488;2024-03-23T00:57:21;100357.16;;;10.60;100.00
53619;BME280;68717;53.040;18.488;2024-03-23T00:57:33;100362.53;;;10.60;100.00
53619;BME280;68717;53.040;18.488;2024-03-23T00:57:45;100359.00;;;10.59;100.00
53619;BME280;68717;53.040;18.488;2024-03-23T00:57:57;100359.84;;;10.60;100.00
53619;BME280;68717;53.040;18.488;2024-03-23T00:58:09;100364.38;;;10.59;100.00
53619;BME280;68717;53.040;18.488;2024-03-23T00:58:21;100357.16;;;10.60;100.00
53619;BME280;68717;53.040;18.488;2024-03-23T00:58:33;100356.31;;;10.59;100.00
53619;BME280;68717;53.040;18.488;2024-03-23T00:58:45;100357.34;;;10.58;100.00
53619;BME280;68717;53.040;18.488;2024-03-23T00:58:57;100358.16;;;10.59;100.00
53619;BME280;68717;53.040;18.488;2024-03-23T00:59:09;100357.34;;;10.58;100.00
53619;BME280;68717;53.040;18.488;2024-03-23T00:59:22;100353.66;;;10.59;100.00
53619;BME280;68717;53.040;18.488;2024-03-23T00:59:38;100351.09;;;10.58;100.00
53619;BME280;68717;53.040;18.488;2024-03-23T00:59:50;100356.47;;;10.58;100.00
53619;BME280;68717;53.040;18.488;2024-03-23T01:00:03;100349.41;;;10.57;100.00
53619;BME280;68717;53.040;18.488;2024-03-23T01:00:18;100352.22;;;10.55;100.00
53619;BME280;68717;53.040;18.488;2024-03-23T01:00:30;100353.06;;;10.56;100.00
53619;BME280;68717;53.040;18.488;2024-03-23T01:00:41;100353.06;;;10.56;100.00
53619;BME280;68717;53.040;18.488;2024-03-23T01:00:53;100350.41;;;10.56;100.00
53619;BME280;68717;53.040;18.488;2024-03-23T01:01:05;100353.06;;;10.56;100.00
53619;BME280;68717;53.040;18.488;2024-03-23T01:01:17;100352.22;;;10.55;100.00
53619;BME280;68717;53.040;18.488;2024-03-23T01:01:29;100346.03;;;10.55;100.00
53619;BME280;68717;53.040;18.488;2024-03-23T01:01:41;100348.84;;;10.53;100.00
53619;BME280;68717;53.040;18.488;2024-03-23T01:01:53;100346.16;;;10.53;100.00
53619;BME280;68717;53.040;18.488;2024-03-23T01:02:05;100342.66;;;10.53;100.00
53619;BME280;68717;53.040;18.488;2024-03-23T01:02:17;100348.00;;;10.53;100.00
53619;BME280;68717;53.040;18.488;2024-03-23T01:02:29;100347.16;;;10.52;100.00
53619;BME280;68717;53.040;18.488;2024-03-23T01:02:41;100347.16;;;10.52;100.00
53619;BME280;68717;53.040;18.488;2024-03-23T01:02:53;100338.28;;;10.52;100.00
53619;BME280;68717;53.040;18.488;2024-03-23T01:03:05;100341.94;;;10.51;100.00
53619;BME280;68717;53.040;18.488;2024-03-23T01:03:18;100343.78;;;10.50;100.00
53619;BME280;68717;53.040;18.488;2024-03-23T01:03:30;100347.31;;;10.51;100.00
53619;BME280;68717;53.040;18.488;2024-03-23T01:03:42;100347.44;;;10.49;100.00
53619;BME280;68717;53.040;18.488;2024-03-23T01:03:54;100348.31;;;10.50;100.00
53619;BME280;68717;53.040;18.488;2024-03-23T01:04:05;100344.75;;;10.49;100.00
53619;BME280;68717;53.040;18.488;2024-03-23T01:04:17;100346.59;;;10.48;100.00
53619;BME280;68717;53.040;18.488;2024-03-23T01:04:29;100350.13;;;10.49;100.00
53619;BME280;68717;53.040;18.488;2024-03-23T01:04:41;100345.63;;;10.50;100.00
53619;BME280;68717;53.040;18.488;2024-03-23T01:04:53;100342.94;;;10.50;100.00
53619;BME280;68717;53.040;18.488;2024-03-23T01:05:05;100345.75;;;10.48;100.00
53619;BME280;68717;53.040;18.488;2024-03-23T01:05:17;100344.91;;;10.47;100.00
53619;BME280;68717;53.040;18.488;2024-03-23T01:05:29;100338.69;;;10.47;100.00
53619;BME280;68717;53.040;18.488;2024-03-23T01:05:41;100348.56;;;10.46;100.00
53619;BME280;68717;53.040;18.488;2024-03-23T01:05:53;100348.56;;;10.46;100.00
53619;BME280;68717;53.040;18.488;2024-03-23T01:06:06;100348.56;;;10.46;100.00
53619;BME280;68717;53.040;18.488;2024-03-23T01:06:17;100338.84;;;10.45;100.00
53619;BME280;68717;53.040;18.488;2024-03-23T01:06:30;100340.53;;;10.46;100.00
53619;BME280;68717;53.040;18.488;2024-03-23T01:06:43;100340.53;;;10.46;100.00
53619;BME280;68717;53.040;18.488;2024-03-23T01:06:58;100345.06;;;10.46;100.00
53619;BME280;68717;53.040;18.488;2024-03-23T01:07:12;100342.38;;;10.46;100.00
53619;BME280;68717;53.040;18.488;2024-03-23T01:07:24;100341.53;;;10.45;100.00
53619;BME280;68717;53.040;18.488;2024-03-23T01:07:36;100348.69;;;10.45;100.00
53619;BME280;68717;53.040;18.488;2024-03-23T01:07:48;100342.38;;;10.46;100.00
53619;BME280;68717;53.040;18.488;2024-03-23T01:08:00;100344.22;;;10.45;100.00
53619;BME280;68717;53.040;18.488;2024-03-23T01:08:12;100346.91;;;10.45;100.00
53619;BME280;68717;53.040;18.488;2024-03-23T01:08:24;100341.53;;;10.45;100.00
53619;BME280;68717;53.040;18.488;2024-03-23T01:08:36;100344.34;;;10.44;100.00
53619;BME280;68717;53.040;18.488;2024-03-23T01:08:48;100342.66;;;10.43;100.00
53619;BME280;68717;53.040;18.488;2024-03-23T01:09:00;100349.84;;;10.42;100.00
53619;BME280;68717;53.040;18.488;2024-03-23T01:09:12;100348.88;;;10.43;100.00
53619;BME280;68717;53.040;18.488;2024-03-23T01:09:25;100352.53;;;10.42;100.00
53619;BME280;68717;53.040;18.488;2024-03-23T01:09:37;100336.59;;;10.41;100.00
53619;BME280;68717;53.040;18.488;2024-03-23T01:09:50;100340.13;;;10.41;100.00
53619;BME280;68717;53.040;18.488;2024-03-23T01:10:04;100342.81;;;10.41;100.00
53619;BME280;68717;53.040;18.488;2024-03-23T01:10:16;100348.16;;;10.41;100.00
53619;BME280;68717;53.040;18.488;2024-03-23T01:10:28;100347.44;;;10.39;100.00
53619;BME280;68717;53.040;18.488;2024-03-23T01:10:40;100342.94;;;10.40;100.00
53619;BME280;68717;53.040;18.488;2024-03-23T01:10:55;100338.41;;;10.40;100.00
53619;BME280;68717;53.040;18.488;2024-03-23T01:11:07;100338.41;;;10.40;100.00
53619;BME280;68717;53.040;18.488;2024-03-23T01:11:19;100347.31;;;10.41;100.00
53619;BME280;68717;53.040;18.488;2024-03-23T01:11:31;100342.09;;;10.39;100.00
53619;BME280;68717;53.040;18.488;2024-03-23T01:11:43;100343.94;;;10.39;100.00
53619;BME280;68717;53.040;18.488;2024-03-23T01:11:55;100347.44;;;10.39;100.00
53619;BME280;68717;53.040;18.488;2024-03-23T01:12:07;100348.44;;;10.38;100.00
53619;BME280;68717;53.040;18.488;2024-03-23T01:12:19;100340.38;;;10.38;100.00
53619;BME280;68717;53.040;18.488;2024-03-23T01:12:32;100348.44;;;10.38;100.00
53619;BME280;68717;53.040;18.488;2024-03-23T01:12:44;100350.25;;;10.38;100.00
53619;BME280;68717;53.040;18.488;2024-03-23T01:12:56;100349.44;;;10.37;100.00
53619;BME280;68717;53.040;18.488;2024-03-23T01:13:08;100351.09;;;10.38;100.00
53619;BME280;68717;53.040;18.488;2024-03-23T01:13:20;100349.44;;;10.37;100.00
53619;BME280;68717;53.040;18.488;2024-03-23T01:13:33;100354.78;;;10.37;100.00
53619;BME280;68717;53.040;18.488;2024-03-23T01:13:45;100352.09;;;10.37;100.00
53619;BME280;68717;53.040;18.488;2024-03-23T01:13:57;100347.72;;;10.36;100.00
53619;BME280;68717;53.040;18.488;2024-03-23T01:14:09;100349.44;;;10.37;100.00
53619;BME280;68717;53.040;18.488;2024-03-23T01:14:21;100354.78;;;10.37;100.00
53619;BME280;68717;53.040;18.488;2024-03-23T01:14:34;100353.06;;;10.36;100.00
53619;BME280;68717;53.040;18.488;2024-03-23T01:14:47;100359.31;;;10.37;100.00
53619;BME280;68717;53.040;18.488;2024-03-23T01:14:59;100349.44;;;10.37;100.00
53619;BME280;68717;53.040;18.488;2024-03-23T01:15:11;100356.75;;;10.35;100.00
53619;BME280;68717;53.040;18.488;2024-03-23T01:15:23;100348.59;;;10.37;100.00
53619;BME280;68717;53.040;18.488;2024-03-23T01:15:35;100354.91;;;10.36;100.00
53619;BME280;68717;53.040;18.488;2024-03-23T01:15:48;100354.91;;;10.36;100.00
53619;BME280;68717;53.040;18.488;2024-03-23T01:16:00;100352.25;;;10.36;100.00
53619;BME280;68717;53.040;18.488;2024-03-23T01:16:13;100355.75;;;10.36;100.00
53619;BME280;68717;53.040;18.488;2024-03-23T01:16:24;100353.06;;;10.36;100.00
53619;BME280;68717;53.040;18.488;2024-03-23T01:16:37;100346.03;;;10.35;100.00
53619;BME280;68717;53.040;18.488;2024-03-23T01:16:50;100338.00;;;10.35;100.00
53619;BME280;68717;53.040;18.488;2024-03-23T01:17:02;100351.41;;;10.35;100.00
53619;BME280;68717;53.040;18.488;2024-03-23T01:17:14;100349.72;;;10.34;100.00
53619;BME280;68717;53.040;18.488;2024-03-23T01:17:26;100349.72;;;10.34;100.00
53619;BME280;68717;53.040;18.488;2024-03-23T01:17:38;100342.66;;;10.33;100.00
53619;BME280;68717;53.040;18.488;2024-03-23T01:17:49;100343.50;;;10.34;100.00
53619;BME280;68717;53.040;18.488;2024-03-23T01:18:01;100339.97;;;10.33;100.00
53619;BME280;68717;53.040;18.488;2024-03-23T01:18:13;100336.31;;;10.34;100.00
53619;BME280;68717;53.040;18.488;2024-03-23T01:18:25;100344.38;;;10.34;100.00
53619;BME280;68717;53.040;18.488;2024-03-23T01:18:38;100342.66;;;10.33;100.00
53619;BME280;68717;53.040;18.488;2024-03-23T01:18:49;100341.69;;;10.34;100.00
53619;BME280;68717;53.040;18.488;2024-03-23T01:19:01;100348.00;;;10.33;100.00
53619;BME280;68717;53.040;18.488;2024-03-23T01:19:14;100336.47;;;10.33;100.00
53619;BME280;68717;53.040;18.488;2024-03-23T01:19:26;100344.50;;;10.33;100.00
53619;BME280;68717;53.040;18.488;2024-03-23T01:19:38;100341.81;;;10.33;100.00
53619;BME280;68717;53.040;18.488;2024-03-23T01:19:50;100339.25;;;10.31;100.00
53619;BME280;68717;53.040;18.488;2024-03-23T01:20:04;100340.09;;;10.32;100.00
53619;BME280;68717;53.040;18.488;2024-03-23T01:20:18;100346.34;;;10.32;100.00
53619;BME280;68717;53.040;18.488;2024-03-23T01:20:30;100344.63;;;10.31;100.00
53619;BME280;68717;53.040;18.488;2024-03-23T01:20:41;100352.53;;;10.33;100.00
53619;BME280;68717;53.040;18.488;2024-03-23T01:20:53;100344.63;;;10.31;100.00
53619;BME280;68717;53.040;18.488;2024-03-23T01:21:05;100348.31;;;10.30;100.00
53619;BME280;68717;53.040;18.488;2024-03-23T01:21:17;100347.44;;;10.30;100.00
53619;BME280;68717;53.040;18.488;2024-03-23T01:21:29;100355.47;;;10.30;100.00
53619;BME280;68717;53.040;18.488;2024-03-23T01:21:41;100345.63;;;10.30;100.00
53619;BME280;68717;53.040;18.488;2024-03-23T01:21:56;100351.97;;;10.29;100.00
53619;BME280;68717;53.040;18.488;2024-03-23T01:22:08;100353.66;;;10.30;100.00
53619;BME280;68717;53.040;18.488;2024-03-23T01:22:21;100353.66;;;10.30;100.00
53619;BME280;68717;53.040;18.488;2024-03-23T01:22:33;100356.47;;;10.29;100.00
53619;BME280;68717;53.040;18.488;2024-03-23T01:22:45;100357.31;;;10.29;100.00
53619;BME280;68717;53.040;18.488;2024-03-23T01:22:57;100350.28;;;10.28;100.00
53619;BME280;68717;53.040;18.488;2024-03-23T01:23:10;100351.13;;;10.29;100.00
53619;BME280;68717;53.040;18.488;2024-03-23T01:23:22;100351.97;;;10.29;100.00
53619;BME280;68717;53.040;18.488;2024-03-23T01:23:33;100353.78;;;10.29;100.00
53619;BME280;68717;53.040;18.488;2024-03-23T01:23:46;100354.75;;;10.27;100.00
53619;BME280;68717;53.040;18.488;2024-03-23T01:23:57;100353.94;;;10.27;100.00
53619;BME280;68717;53.040;18.488;2024-03-23T01:24:09;100348.56;;;10.27;100.00
53619;BME280;68717;53.040;18.488;2024-03-23T01:24:22;100353.94;;;10.27;100.00
53619;BME280;68717;53.040;18.488;2024-03-23T01:24:34;100356.59;;;10.27;100.00
53619;BME280;68717;53.040;18.488;2024-03-23T01:24:46;100351.41;;;10.25;100.00
53619;BME280;68717;53.040;18.488;2024-03-23T01:24:58;100346.88;;;10.26;100.00
53619;BME280;68717;53.040;18.488;2024-03-23T01:25:10;100349.56;;;10.26;100.00
53619;BME280;68717;53.040;18.488;2024-03-23T01:25:22;100352.25;;;10.26;100.00
53619;BME280;68717;53.040;18.488;2024-03-23T01:25:34;100351.53;;;10.24;100.00
53619;BME280;68717;53.040;18.488;2024-03-23T01:25:51;100354.22;;;10.24;100.00
53619;BME280;68717;53.040;18.488;2024-03-23T01:26:04;100354.22;;;10.24;100.00
53619;BME280;68717;53.040;18.488;2024-03-23T01:26:16;100359.56;;;10.24;100.00
53619;BME280;68717;53.040;18.488;2024-03-23T01:26:28;100359.72;;;10.22;100.00
53619;BME280;68717;53.040;18.488;2024-03-23T01:26:41;100360.53;;;10.23;100.00
53619;BME280;68717;53.040;18.488;2024-03-23T01:26:53;100349.00;;;10.22;100.00
53619;BME280;68717;53.040;18.488;2024-03-23T01:27:04;100349.00;;;10.22;100.00
53619;BME280;68717;53.040;18.488;2024-03-23T01:27:17;100354.34;;;10.22;100.00
53619;BME280;68717;53.040;18.488;2024-03-23T01:27:29;100352.50;;;10.23;100.00
53619;BME280;68717;53.040;18.488;2024-03-23T01:27:41;100355.34;;;10.21;100.00
53619;BME280;68717;53.040;18.488;2024-03-23T01:27:53;100350.84;;;10.22;100.00
53619;BME280;68717;53.040;18.488;2024-03-23T01:28:06;100355.34;;;10.21;100.00
53619;BME280;68717;53.040;18.488;2024-03-23T01:28:18;100350.00;;;10.21;100.00
53619;BME280;68717;53.040;18.488;2024-03-23T01:28:30;100349.13;;;10.21;100.00
53619;BME280;68717;53.040;18.488;2024-03-23T01:28:42;100349.13;;;10.21;100.00
53619;BME280;68717;53.040;18.488;2024-03-23T01:28:54;100354.47;;;10.21;100.00
53619;BME280;68717;53.040;18.488;2024-03-23T01:29:05;100351.81;;;10.21;100.00
53619;BME280;68717;53.040;18.488;2024-03-23T01:29:17;100354.47;;;10.21;100.00
53619;BME280;68717;53.040;18.488;2024-03-23T01:29:29;100347.44;;;10.20;100.00
53619;BME280;68717;53.040;18.488;2024-03-23T01:29:42;100347.44;;;10.20;100.00
53619;BME280;68717;53.040;18.488;2024-03-23T01:29:54;100354.47;;;10.21;100.00
53619;BME280;68717;53.040;18.488;2024-03-23T01:30:07;100350.97;;;10.20;100.00
53619;BME280;68717;53.040;18.488;2024-03-23T01:30:19;100349.13;;;10.21;100.00
53619;BME280;68717;53.040;18.488;2024-03-23T01:30:31;100346.44;;;10.21;100.00
53619;BME280;68717;53.040;18.488;2024-03-23T01:30:43;100347.44;;;10.20;100.00
53619;BME280;68717;53.040;18.488;2024-03-23T01:30:55;100349.13;;;10.21;100.00
53619;BME280;68717;53.040;18.488;2024-03-23T01:31:08;100343.75;;;10.21;100.00
53619;BME280;68717;53.040;18.488;2024-03-23T01:31:21;100345.75;;;10.19;100.00
53619;BME280;68717;53.040;18.488;2024-03-23T01:31:33;100347.44;;;10.20;100.00
53619;BME280;68717;53.040;18.488;2024-03-23T01:31:44;100344.78;;;10.20;100.00
53619;BME280;68717;53.040;18.488;2024-03-23T01:31:57;100343.94;;;10.19;100.00
53619;BME280;68717;53.040;18.488;2024-03-23T01:32:09;100350.25;;;10.18;100.00
53619;BME280;68717;53.040;18.488;2024-03-23T01:32:21;100351.97;;;10.19;100.00
53619;BME280;68717;53.040;18.488;2024-03-23T01:32:35;100349.41;;;10.18;100.00
53619;BME280;68717;53.040;18.488;2024-03-23T01:32:47;100346.75;;;10.18;100.00
53619;BME280;68717;53.040;18.488;2024-03-23T01:32:58;100339.69;;;10.17;100.00
53619;BME280;68717;53.040;18.488;2024-03-23T01:33:11;100349.41;;;10.18;100.00
53619;BME280;68717;53.040;18.488;2024-03-23T01:33:23;100348.56;;;10.17;100.00
53619;BME280;68717;53.040;18.488;2024-03-23T01:33:35;100343.22;;;10.17;100.00
53619;BME280;68717;53.040;18.488;2024-03-23T01:33:47;100345.91;;;10.17;100.00
53619;BME280;68717;53.040;18.488;2024-03-23T01:33:59;100347.75;;;10.17;100.00
53619;BME280;68717;53.040;18.488;2024-03-23T01:34:11;100347.75;;;10.17;100.00
53619;BME280;68717;53.040;18.488;2024-03-23T01:34:24;100348.72;;;10.16;100.00
53619;BME280;68717;53.040;18.488;2024-03-23T01:34:36;100346.03;;;10.16;100.00
53619;BME280;68717;53.040;18.488;2024-03-23T01:34:48;100346.03;;;10.16;100.00
53619;BME280;68717;53.040;18.488;2024-03-23T01:35:00;100344.34;;;10.15;100.00
53619;BME280;68717;53.040;18.488;2024-03-23T01:35:12;100351.53;;;10.14;100.00
53619;BME280;68717;53.040;18.488;2024-03-23T01:35:24;100349.72;;;10.15;100.00
53619;BME280;68717;53.040;18.488;2024-03-23T01:35:36;100348.00;;;10.14;100.00
53619;BME280;68717;53.040;18.488;2024-03-23T01:35:48;100349.72;;;10.15;100.00
53619;BME280;68717;53.040;18.488;2024-03-23T01:36:00;100353.34;;;10.14;100.00
53619;BME280;68717;53.040;18.488;2024-03-23T01:36:12;100348.00;;;10.14;100.00
53619;BME280;68717;53.040;18.488;2024-03-23T01:36:24;100347.16;;;10.13;100.00
53619;BME280;68717;53.040;18.488;2024-03-23T01:36:36;100349.00;;;10.13;100.00
53619;BME280;68717;53.040;18.488;2024-03-23T01:36:47;100345.44;;;10.12;100.00
53619;BME280;68717;53.040;18.488;2024-03-23T01:37:01;100352.53;;;10.13;100.00
53619;BME280;68717;53.040;18.488;2024-03-23T01:37:13;100349.84;;;10.13;100.00
53619;BME280;68717;53.040;18.488;2024-03-23T01:37:26;100352.53;;;10.13;100.00
53619;BME280;68717;53.040;18.488;2024-03-23T01:37:39;100346.31;;;10.13;100.00
53619;BME280;68717;53.040;18.488;2024-03-23T01:37:52;100349.84;;;10.13;100.00
53619;BME280;68717;53.040;18.488;2024-03-23T01:38:04;100356.16;;;10.12;100.00
53619;BME280;68717;53.040;18.488;2024-03-23T01:38:16;100347.28;;;10.12;100.00
53619;BME280;68717;53.040;18.488;2024-03-23T01:38:28;100349.13;;;10.11;100.00
53619;BME280;68717;53.040;18.488;2024-03-23T01:38:39;100350.81;;;10.12;100.00
53619;BME280;68717;53.040;18.488;2024-03-23T01:38:52;100351.81;;;10.11;100.00
53619;BME280;68717;53.040;18.488;2024-03-23T01:39:04;100352.66;;;10.12;100.00
53619;BME280;68717;53.040;18.488;2024-03-23T01:39:16;100349.97;;;10.12;100.00
53619;BME280;68717;53.040;18.488;2024-03-23T01:39:28;100349.13;;;10.11;100.00
53619;BME280;68717;53.040;18.488;2024-03-23T01:39:40;100342.94;;;10.11;100.00
53619;BME280;68717;53.040;18.488;2024-03-23T01:39:52;100342.94;;;10.11;100.00
53619;BME280;68717;53.040;18.488;2024-03-23T01:40:05;100347.41;;;10.10;100.00
53619;BME280;68717;53.040;18.488;2024-03-23T01:40:17;100337.72;;;10.09;100.00
53619;BME280;68717;53.040;18.488;2024-03-23T01:40:29;100342.06;;;10.10;100.00
53619;BME280;68717;53.040;18.488;2024-03-23T01:40:43;100342.06;;;10.10;100.00
53619;BME280;68717;53.040;18.488;2024-03-23T01:40:58;100343.91;;;10.10;100.00
53619;BME280;68717;53.040;18.488;2024-03-23T01:41:11;100345.63;;;10.11;100.00
53619;BME280;68717;53.040;18.488;2024-03-23T01:41:24;100341.22;;;10.10;100.00
53619;BME280;68717;53.040;18.488;2024-03-23T01:41:36;100336.72;;;10.10;100.00
53619;BME280;68717;53.040;18.488;2024-03-23T01:41:49;100342.06;;;10.10;100.00
53619;BME280;68717;53.040;18.488;2024-03-23T01:42:03;100342.94;;;10.11;100.00
53619;BME280;68717;53.040;18.488;2024-03-23T01:42:15;100350.97;;;10.11;100.00
53619;BME280;68717;53.040;18.488;2024-03-23T01:42:27;100345.63;;;10.11;100.00
53619;BME280;68717;53.040;18.488;2024-03-23T01:42:39;100337.56;;;10.11;100.00
53619;BME280;68717;53.040;18.488;2024-03-23T01:42:57;100342.06;;;10.10;100.00
53619;BME280;68717;53.040;18.488;2024-03-23T01:43:09;100341.22;;;10.10;100.00
53619;BME280;68717;53.040;18.488;2024-03-23T01:43:21;100340.38;;;10.09;100.00
53619;BME280;68717;53.040;18.488;2024-03-23T01:43:33;100334.19;;;10.09;100.00
53619;BME280;68717;53.040;18.488;2024-03-23T01:43:45;100339.53;;;10.09;100.00
53619;BME280;68717;53.040;18.488;2024-03-23T01:43:57;100336.88;;;10.09;100.00
53619;BME280;68717;53.040;18.488;2024-03-23T01:44:10;100344.06;;;10.08;100.00
53619;BME280;68717;53.040;18.488;2024-03-23T01:44:22;100339.69;;;10.07;100.00
53619;BME280;68717;53.040;18.488;2024-03-23T01:44:34;100336.88;;;10.09;100.00
53619;BME280;68717;53.040;18.488;2024-03-23T01:44:46;100347.41;;;10.10;100.00
53619;BME280;68717;53.040;18.488;2024-03-23T01:44:58;100339.53;;;10.09;100.00
53619;BME280;68717;53.040;18.488;2024-03-23T01:45:10;100339.53;;;10.09;100.00
53619;BME280;68717;53.040;18.488;2024-03-23T01:45:22;100342.22;;;10.09;100.00
53619;BME280;68717;53.040;18.488;2024-03-23T01:45:35;100338.72;;;10.08;100.00
53619;BME280;68717;53.040;18.488;2024-03-23T01:45:47;100343.19;;;10.07;100.00
53619;BME280;68717;53.040;18.488;2024-03-23T01:45:59;100343.19;;;10.07;100.00
53619;BME280;68717;53.040;18.488;2024-03-23T01:46:11;100338.84;;;10.06;100.00
53619;BME280;68717;53.040;18.488;2024-03-23T01:46:23;100337.84;;;10.07;100.00
53619;BME280;68717;53.040;18.488;2024-03-23T01:46:35;100334.44;;;10.05;100.00
53619;BME280;68717;53.040;18.488;2024-03-23T01:46:48;100338.00;;;10.06;100.00
53619;BME280;68717;53.040;18.488;2024-03-23T01:47:00;100334.44;;;10.05;100.00
53619;BME280;68717;53.040;18.488;2024-03-23T01:47:13;100338.97;;;10.05;100.00
53619;BME280;68717;53.040;18.488;2024-03-23T01:47:25;100328.25;;;10.05;100.00
53619;BME280;68717;53.040;18.488;2024-03-23T01:47:37;100331.94;;;10.04;100.00
53619;BME280;68717;53.040;18.488;2024-03-23T01:47:50;100331.06;;;10.03;100.00
53619;BME280;68717;53.040;18.488;2024-03-23T01:48:02;100332.78;;;10.04;100.00
53619;BME280;68717;53.040;18.488;2024-03-23T01:48:15;100330.94;;;10.05;100.00
53619;BME280;68717;53.040;18.488;2024-03-23T01:48:27;100331.06;;;10.03;100.00
53619;BME280;68717;53.040;18.488;2024-03-23T01:48:39;100334.44;;;10.05;100.00
53619;BME280;68717;53.040;18.488;2024-03-23T01:48:51;100325.72;;;10.03;100.00
53619;BME280;68717;53.040;18.488;2024-03-23T01:49:03;100337.28;;;10.04;100.00
53619;BME280;68717;53.040;18.488;2024-03-23T01:49:16;100328.38;;;10.03;100.00
53619;BME280;68717;53.040;18.488;2024-03-23T01:49:28;100339.09;;;10.03;100.00
53619;BME280;68717;53.040;18.488;2024-03-23T01:49:40;100335.59;;;10.03;100.00
53619;BME280;68717;53.040;18.488;2024-03-23T01:49:52;100335.59;;;10.03;100.00
53619;BME280;68717;53.040;18.488;2024-03-23T01:50:06;100338.38;;;10.01;100.00
53619;BME280;68717;53.040;18.488;2024-03-23T01:50:18;100334.75;;;10.02;100.00
53619;BME280;68717;53.040;18.488;2024-03-23T01:50:31;100340.09;;;10.02;100.00
53619;BME280;68717;53.040;18.488;2024-03-23T01:50:45;100336.59;;;10.02;100.00
53619;BME280;68717;53.040;18.488;2024-03-23T01:50:58;100339.25;;;10.02;100.00
53619;BME280;68717;53.040;18.488;2024-03-23T01:51:10;100342.78;;;10.02;100.00
53619;BME280;68717;53.040;18.488;2024-03-23T01:51:23;100335.72;;;10.01;100.00
53619;BME280;68717;53.040;18.488;2024-03-23T01:51:36;100333.03;;;10.01;100.00
53619;BME280;68717;53.040;18.488;2024-03-23T01:51:49;100338.38;;;10.01;100.00
53619;BME280;68717;53.040;18.488;2024-03-23T01:52:03;100342.06;;;10.00;100.00
53619;BME280;68717;53.040;18.488;2024-03-23T01:52:15;100337.56;;;10.01;100.00
53619;BME280;68717;53.040;18.488;2024-03-23T01:52:27;100342.06;;;10.00;100.00
53619;BME280;68717;53.040;18.488;2024-03-23T01:52:39;100337.56;;;10.01;100.00
53619;BME280;68717;53.040;18.488;2024-03-23T01:52:51;100345.59;;;10.01;100.00
53619;BME280;68717;53.040;18.488;2024-03-23T01:53:04;100336.72;;;10.00;100.00
53619;BME280;68717;53.040;18.488;2024-03-23T01:53:18;100336.72;;;10.00;100.00
53619;BME280;68717;53.040;18.488;2024-03-23T01:53:33;100340.38;;;9.99;100.00
53619;BME280;68717;53.040;18.488;2024-03-23T01:53:44;100335.03;;;9.99;100.00
53619;BME280;68717;53.040;18.488;2024-03-23T01:53:57;100337.56;;;10.01;100.00
53619;BME280;68717;53.040;18.488;2024-03-23T01:54:09;100336.72;;;10.00;100.00
53619;BME280;68717;53.040;18.488;2024-03-23T01:54:22;100337.72;;;9.99;100.00
53619;BME280;68717;53.040;18.488;2024-03-23T01:54:35;100336.72;;;10.00;100.00
53619;BME280;68717;53.040;18.488;2024-03-23T01:54:47;100331.34;;;10.00;100.00
53619;BME280;68717;53.040;18.488;2024-03-23T01:54:59;100335.88;;;10.00;100.00
53619;BME280;68717;53.040;18.488;2024-03-23T01:55:12;100331.34;;;10.00;100.00
53619;BME280;68717;53.040;18.488;2024-03-23T01:55:24;100329.69;;;9.99;100.00
53619;BME280;68717;53.040;18.488;2024-03-23T01:55:36;100329.69;;;9.99;100.00
53619;BME280;68717;53.040;18.488;2024-03-23T01:55:50;100328.81;;;9.99;100.00